CES5541 ZSYT-ZYTX
Flight info
| Callsign | CES5541 |
|---|---|
| Flight time | 1h 10m |
| Altitude | 29100 |
| Route | IGD81D IGDEG W173 NIXEP W8 DOBGA W202 UDETI A588 TOSID TOS62A |
| Aircraft | B738/M-SDE2E3FGHIRWXY/LB1 |
Departure
| Time | 2026-04-26 13:27 |
|---|---|
| Airport | Yantai Penglai International Airport (ZSYT) |
Arrival
| Time | 2026-04-26 14:38 |
|---|---|
| Airport | Shenyang Taoxian International Airport (ZYTX) |
| Time | Latitude | Longitude | Altitude | Speed | Heading |
|---|---|---|---|---|---|
| 2026-04-26 12:52 | 37.65755 | 120.98432 | 161 ft | 0 kts | 132° |
| 2026-04-26 13:14 | 37.65758 | 120.98428 | 160 ft | 2 kts | 131° |
| 2026-04-26 13:14 | 37.65768 | 120.98413 | 160 ft | 2 kts | 131° |
| 2026-04-26 13:14 | 37.65778 | 120.98399 | 160 ft | 2 kts | 131° |
| 2026-04-26 13:15 | 37.65786 | 120.98387 | 160 ft | 0 kts | 131° |
| 2026-04-26 13:15 | 37.65792 | 120.98376 | 160 ft | 2 kts | 94° |
| 2026-04-26 13:15 | 37.65789 | 120.98359 | 160 ft | 0 kts | 45° |
| 2026-04-26 13:15 | 37.65783 | 120.98353 | 160 ft | 0 kts | 41° |
| 2026-04-26 13:20 | 37.65783 | 120.98354 | 160 ft | 1 kts | 41° |
| 2026-04-26 13:20 | 37.65813 | 120.98389 | 160 ft | 10 kts | 43° |
| 2026-04-26 13:20 | 37.65894 | 120.98483 | 160 ft | 19 kts | 42° |
| 2026-04-26 13:20 | 37.65991 | 120.98595 | 160 ft | 18 kts | 41° |
| 2026-04-26 13:21 | 37.66086 | 120.98703 | 160 ft | 17 kts | 43° |
| 2026-04-26 13:21 | 37.66147 | 120.98772 | 160 ft | 17 kts | 41° |
| 2026-04-26 13:21 | 37.66260 | 120.98902 | 161 ft | 15 kts | 43° |
| 2026-04-26 13:21 | 37.66338 | 120.98990 | 160 ft | 13 kts | 41° |
| 2026-04-26 13:22 | 37.66410 | 120.98973 | 161 ft | 12 kts | 312° |
| 2026-04-26 13:22 | 37.66469 | 120.98893 | 161 ft | 12 kts | 313° |
| 2026-04-26 13:22 | 37.66529 | 120.98812 | 161 ft | 11 kts | 314° |
| 2026-04-26 13:22 | 37.66592 | 120.98816 | 161 ft | 10 kts | 46° |
| 2026-04-26 13:23 | 37.66656 | 120.98892 | 161 ft | 16 kts | 42° |
| 2026-04-26 13:23 | 37.66751 | 120.99000 | 161 ft | 18 kts | 42° |
| 2026-04-26 13:23 | 37.66845 | 120.99108 | 161 ft | 17 kts | 42° |
| 2026-04-26 13:23 | 37.66934 | 120.99210 | 161 ft | 17 kts | 42° |
| 2026-04-26 13:24 | 37.67010 | 120.99271 | 161 ft | 9 kts | 349° |
| 2026-04-26 13:24 | 37.67045 | 120.99237 | 161 ft | 0 kts | 313° |
| 2026-04-26 13:25 | 37.67048 | 120.99234 | 161 ft | 2 kts | 313° |
| 2026-04-26 13:25 | 37.67075 | 120.99195 | 161 ft | 9 kts | 308° |
| 2026-04-26 13:25 | 37.67090 | 120.99106 | 161 ft | 14 kts | 230° |
| 2026-04-26 13:26 | 37.67005 | 120.99013 | 161 ft | 14 kts | 222° |
| 2026-04-26 13:26 | 37.66982 | 120.98986 | 161 ft | 0 kts | 223° |
| 2026-04-26 13:26 | 37.66981 | 120.98985 | 161 ft | 1 kts | 223° |
| 2026-04-26 13:26 | 37.66835 | 120.98819 | 161 ft | 71 kts | 223° |
| 2026-04-26 13:27 | 37.66252 | 120.98150 | 161 ft | 150 kts | 221° |
| 2026-04-26 13:27 | 37.65379 | 120.97159 | 540 ft | 182 kts | 221° |
| 2026-04-26 13:27 | 37.64497 | 120.96104 | 1597 ft | 175 kts | 222° |
| 2026-04-26 13:27 | 37.63575 | 120.95004 | 2154 ft | 190 kts | 222° |
| 2026-04-26 13:28 | 37.62582 | 120.93841 | 2707 ft | 205 kts | 222° |
| 2026-04-26 13:28 | 37.61501 | 120.92582 | 3247 ft | 222 kts | 223° |
| 2026-04-26 13:28 | 37.60309 | 120.91183 | 3802 ft | 241 kts | 224° |
| 2026-04-26 13:28 | 37.59085 | 120.89741 | 4589 ft | 248 kts | 224° |
| 2026-04-26 13:29 | 37.57781 | 120.88203 | 5283 ft | 261 kts | 225° |
| 2026-04-26 13:29 | 37.56898 | 120.87165 | 5808 ft | 265 kts | 225° |
| 2026-04-26 13:29 | 37.55335 | 120.84865 | 7066 ft | 262 kts | 245° |
| 2026-04-26 13:29 | 37.54928 | 120.82648 | 7795 ft | 267 kts | 271° |
| 2026-04-26 13:30 | 37.55260 | 120.80363 | 8694 ft | 268 kts | 290° |
| 2026-04-26 13:30 | 37.56028 | 120.78256 | 9472 ft | 272 kts | 296° |
| 2026-04-26 13:30 | 37.56886 | 120.76133 | 10311 ft | 275 kts | 297° |
| 2026-04-26 13:30 | 37.57781 | 120.73917 | 10795 ft | 291 kts | 297° |
| 2026-04-26 13:31 | 37.58721 | 120.71574 | 11334 ft | 305 kts | 297° |
| 2026-04-26 13:31 | 37.59695 | 120.69135 | 11808 ft | 321 kts | 297° |
| 2026-04-26 13:31 | 37.60789 | 120.66623 | 12274 ft | 336 kts | 302° |
| 2026-04-26 13:31 | 37.62287 | 120.64304 | 13058 ft | 342 kts | 316° |
| 2026-04-26 13:32 | 37.64181 | 120.62533 | 13879 ft | 348 kts | 329° |
| 2026-04-26 13:32 | 37.66404 | 120.61245 | 14765 ft | 353 kts | 338° |
| 2026-04-26 13:32 | 37.68786 | 120.60416 | 15612 ft | 360 kts | 348° |
| 2026-04-26 13:32 | 37.71300 | 120.60294 | 16397 ft | 370 kts | 2° |
| 2026-04-26 13:33 | 37.73831 | 120.60983 | 17217 ft | 378 kts | 15° |
| 2026-04-26 13:33 | 37.76245 | 120.62272 | 17924 ft | 387 kts | 23° |
| 2026-04-26 13:33 | 37.78663 | 120.63913 | 18654 ft | 394 kts | 26° |
| 2026-04-26 13:33 | 37.81009 | 120.65654 | 19275 ft | 401 kts | 27° |
| 2026-04-26 13:34 | 37.83418 | 120.67490 | 19976 ft | 405 kts | 27° |
| 2026-04-26 13:34 | 37.85867 | 120.69356 | 20527 ft | 413 kts | 27° |
| 2026-04-26 13:34 | 37.88325 | 120.71221 | 21178 ft | 418 kts | 26° |
| 2026-04-26 13:34 | 37.89993 | 120.72482 | 21571 ft | 422 kts | 26° |
| 2026-04-26 13:35 | 37.93396 | 120.75041 | 22367 ft | 430 kts | 26° |
| 2026-04-26 13:35 | 37.95992 | 120.76982 | 22974 ft | 434 kts | 26° |
| 2026-04-26 13:35 | 37.98611 | 120.78931 | 23433 ft | 442 kts | 25° |
| 2026-04-26 13:35 | 38.01268 | 120.80908 | 24154 ft | 443 kts | 25° |
| 2026-04-26 13:36 | 38.03916 | 120.82886 | 24606 ft | 450 kts | 25° |
| 2026-04-26 13:36 | 38.06615 | 120.84908 | 25193 ft | 454 kts | 26° |
| 2026-04-26 13:36 | 38.09352 | 120.86963 | 25888 ft | 455 kts | 25° |
| 2026-04-26 13:36 | 38.12058 | 120.89002 | 26479 ft | 458 kts | 25° |
| 2026-04-26 13:37 | 38.14805 | 120.91071 | 26991 ft | 462 kts | 25° |
| 2026-04-26 13:37 | 38.17590 | 120.93171 | 27538 ft | 466 kts | 25° |
| 2026-04-26 13:37 | 38.20278 | 120.95230 | 28052 ft | 470 kts | 27° |
| 2026-04-26 13:38 | 38.23568 | 120.98521 | 28900 ft | 475 kts | 36° |
| 2026-04-26 13:38 | 38.25784 | 121.01773 | 29017 ft | 488 kts | 49° |
| 2026-04-26 13:38 | 38.27497 | 121.05486 | 29038 ft | 491 kts | 57° |
| 2026-04-26 13:39 | 38.30383 | 121.13332 | 29061 ft | 491 kts | 62° |
| 2026-04-26 13:39 | 38.33057 | 121.21310 | 29073 ft | 489 kts | 63° |
| 2026-04-26 13:40 | 38.35704 | 121.29255 | 29054 ft | 487 kts | 63° |
| 2026-04-26 13:40 | 38.38375 | 121.37163 | 29047 ft | 486 kts | 63° |
| 2026-04-26 13:41 | 38.41075 | 121.45075 | 29043 ft | 487 kts | 63° |
| 2026-04-26 13:41 | 38.43936 | 121.52858 | 29042 ft | 487 kts | 59° |
| 2026-04-26 13:42 | 38.47022 | 121.60464 | 29039 ft | 484 kts | 58° |
| 2026-04-26 13:42 | 38.50151 | 121.68079 | 29038 ft | 485 kts | 59° |
| 2026-04-26 13:43 | 38.53246 | 121.75697 | 29039 ft | 485 kts | 59° |
| 2026-04-26 13:43 | 38.56311 | 121.83343 | 29042 ft | 484 kts | 60° |
| 2026-04-26 13:44 | 38.59361 | 121.91022 | 29044 ft | 484 kts | 60° |
| 2026-04-26 13:44 | 38.62384 | 121.98673 | 29043 ft | 484 kts | 60° |
| 2026-04-26 13:45 | 38.65412 | 122.06358 | 29046 ft | 484 kts | 60° |
| 2026-04-26 13:45 | 38.68673 | 122.13883 | 29041 ft | 480 kts | 51° |
| 2026-04-26 13:45 | 38.70827 | 122.17055 | 29045 ft | 472 kts | 37° |
| 2026-04-26 13:46 | 38.73397 | 122.19608 | 29050 ft | 467 kts | 29° |
| 2026-04-26 13:46 | 38.78878 | 122.24058 | 29043 ft | 464 kts | 25° |
| 2026-04-26 13:47 | 38.84420 | 122.28259 | 29044 ft | 464 kts | 25° |
| 2026-04-26 13:47 | 38.89982 | 122.32504 | 29047 ft | 464 kts | 25° |
| 2026-04-26 13:48 | 38.95500 | 122.36797 | 29049 ft | 466 kts | 26° |
| 2026-04-26 13:48 | 39.00995 | 122.41126 | 29050 ft | 463 kts | 26° |
| 2026-04-26 13:49 | 39.06490 | 122.45489 | 29046 ft | 464 kts | 26° |
| 2026-04-26 13:49 | 39.11972 | 122.49851 | 29054 ft | 465 kts | 26° |
| 2026-04-26 13:50 | 39.17495 | 122.54260 | 29046 ft | 464 kts | 26° |
| 2026-04-26 13:50 | 39.22957 | 122.58631 | 29049 ft | 464 kts | 26° |
| 2026-04-26 13:51 | 39.28456 | 122.63010 | 29047 ft | 463 kts | 25° |
| 2026-04-26 13:51 | 39.34065 | 122.67111 | 29046 ft | 462 kts | 23° |
| 2026-04-26 13:52 | 39.39681 | 122.71043 | 29051 ft | 461 kts | 22° |
| 2026-04-26 13:52 | 39.45330 | 122.75000 | 29049 ft | 461 kts | 23° |
| 2026-04-26 13:53 | 39.51025 | 122.79024 | 29051 ft | 475 kts | 23° |
| 2026-04-26 13:53 | 39.53968 | 122.81107 | 29051 ft | 486 kts | 23° |
| 2026-04-26 13:53 | 39.56962 | 122.83235 | 29047 ft | 497 kts | 23° |
| 2026-04-26 13:54 | 39.63018 | 122.87578 | 29045 ft | 497 kts | 24° |
| 2026-04-26 13:54 | 39.69046 | 122.91931 | 29043 ft | 492 kts | 24° |
| 2026-04-26 13:55 | 39.76986 | 122.97682 | 29050 ft | 491 kts | 23° |
| 2026-04-26 13:56 | 39.86908 | 123.04870 | 29062 ft | 491 kts | 23° |
| 2026-04-26 13:56 | 39.92879 | 123.09205 | 29062 ft | 490 kts | 23° |
| 2026-04-26 13:57 | 39.98840 | 123.13541 | 29061 ft | 490 kts | 23° |
| 2026-04-26 13:57 | 40.04837 | 123.17911 | 29066 ft | 490 kts | 23° |
| 2026-04-26 13:58 | 40.10772 | 123.22213 | 29066 ft | 490 kts | 23° |
| 2026-04-26 13:58 | 40.16758 | 123.26524 | 29066 ft | 490 kts | 22° |
| 2026-04-26 13:59 | 40.22620 | 123.30759 | 29063 ft | 465 kts | 22° |
| 2026-04-26 13:59 | 40.28215 | 123.34820 | 29073 ft | 459 kts | 22° |
| 2026-04-26 14:00 | 40.39418 | 123.42919 | 29070 ft | 461 kts | 22° |
| 2026-04-26 14:01 | 40.45047 | 123.47011 | 29070 ft | 460 kts | 22° |
| 2026-04-26 14:01 | 40.50656 | 123.51098 | 29026 ft | 462 kts | 22° |
| 2026-04-26 14:01 | 40.53492 | 123.53165 | 28605 ft | 464 kts | 22° |
| 2026-04-26 14:02 | 40.56318 | 123.55245 | 27951 ft | 463 kts | 23° |
| 2026-04-26 14:02 | 40.59039 | 123.57460 | 27300 ft | 463 kts | 27° |
| 2026-04-26 14:02 | 40.61680 | 123.59917 | 26635 ft | 461 kts | 30° |
| 2026-04-26 14:02 | 40.64202 | 123.62449 | 25977 ft | 459 kts | 32° |
| 2026-04-26 14:03 | 40.66719 | 123.65074 | 25311 ft | 455 kts | 33° |
| 2026-04-26 14:03 | 40.69172 | 123.67670 | 24659 ft | 451 kts | 34° |
| 2026-04-26 14:03 | 40.71579 | 123.70227 | 23995 ft | 447 kts | 34° |
| 2026-04-26 14:03 | 40.73983 | 123.72775 | 23310 ft | 443 kts | 34° |
| 2026-04-26 14:04 | 40.76385 | 123.75314 | 22638 ft | 438 kts | 34° |
| 2026-04-26 14:04 | 40.78728 | 123.77781 | 21981 ft | 434 kts | 34° |
| 2026-04-26 14:04 | 40.81078 | 123.80245 | 21318 ft | 430 kts | 34° |
| 2026-04-26 14:04 | 40.83439 | 123.82718 | 20659 ft | 426 kts | 34° |
| 2026-04-26 14:05 | 40.85715 | 123.85097 | 20019 ft | 422 kts | 33° |
| 2026-04-26 14:05 | 40.88007 | 123.87489 | 19355 ft | 418 kts | 33° |
| 2026-04-26 14:05 | 40.90303 | 123.89803 | 18683 ft | 410 kts | 31° |
| 2026-04-26 14:05 | 40.92616 | 123.91829 | 18042 ft | 395 kts | 27° |
| 2026-04-26 14:06 | 40.94946 | 123.93632 | 17410 ft | 382 kts | 24° |
| 2026-04-26 14:06 | 40.97256 | 123.95294 | 16770 ft | 372 kts | 23° |
| 2026-04-26 14:06 | 40.99515 | 123.96868 | 16132 ft | 362 kts | 22° |
| 2026-04-26 14:06 | 41.01730 | 123.98402 | 15495 ft | 357 kts | 22° |
| 2026-04-26 14:07 | 41.03923 | 123.99931 | 14863 ft | 355 kts | 23° |
| 2026-04-26 14:07 | 41.06081 | 124.01454 | 14232 ft | 352 kts | 24° |
| 2026-04-26 14:07 | 41.08239 | 124.02993 | 13597 ft | 348 kts | 24° |
| 2026-04-26 14:07 | 41.10351 | 124.04511 | 12980 ft | 343 kts | 24° |
| 2026-04-26 14:08 | 41.12397 | 124.05988 | 12368 ft | 336 kts | 25° |
| 2026-04-26 14:08 | 41.14441 | 124.07465 | 11741 ft | 331 kts | 25° |
| 2026-04-26 14:08 | 41.16447 | 124.08916 | 11112 ft | 325 kts | 25° |
| 2026-04-26 14:08 | 41.18417 | 124.10341 | 10483 ft | 320 kts | 26° |
| 2026-04-26 14:09 | 41.20361 | 124.11747 | 9851 ft | 316 kts | 26° |
| 2026-04-26 14:09 | 41.22272 | 124.13059 | 9226 ft | 310 kts | 22° |
| 2026-04-26 14:09 | 41.24325 | 124.13864 | 8588 ft | 305 kts | 5° |
| 2026-04-26 14:09 | 41.26398 | 124.13701 | 7969 ft | 301 kts | 346° |
| 2026-04-26 14:10 | 41.28369 | 124.12721 | 7347 ft | 303 kts | 334° |
| 2026-04-26 14:10 | 41.30132 | 124.11226 | 6710 ft | 306 kts | 322° |
| 2026-04-26 14:10 | 41.31540 | 124.09116 | 6080 ft | 310 kts | 304° |
| 2026-04-26 14:10 | 41.32592 | 124.06606 | 5452 ft | 312 kts | 299° |
| 2026-04-26 14:11 | 41.34554 | 124.01433 | 4188 ft | 314 kts | 299° |
| 2026-04-26 14:11 | 41.35540 | 123.98882 | 3912 ft | 303 kts | 300° |
| 2026-04-26 14:11 | 41.36476 | 123.96492 | 3887 ft | 284 kts | 300° |
| 2026-04-26 14:12 | 41.37366 | 123.94241 | 3888 ft | 266 kts | 301° |
| 2026-04-26 14:12 | 41.38155 | 123.92072 | 3888 ft | 257 kts | 294° |
| 2026-04-26 14:12 | 41.38628 | 123.89744 | 3902 ft | 261 kts | 283° |
| 2026-04-26 14:12 | 41.38892 | 123.87335 | 3903 ft | 262 kts | 280° |
| 2026-04-26 14:13 | 41.39365 | 123.82649 | 3895 ft | 250 kts | 281° |
| 2026-04-26 14:13 | 41.39637 | 123.80363 | 3899 ft | 251 kts | 282° |
| 2026-04-26 14:13 | 41.39920 | 123.78065 | 3899 ft | 251 kts | 282° |
| 2026-04-26 14:14 | 41.40205 | 123.75774 | 3902 ft | 251 kts | 282° |
| 2026-04-26 14:14 | 41.40493 | 123.73453 | 3900 ft | 251 kts | 282° |
| 2026-04-26 14:14 | 41.40778 | 123.71153 | 3678 ft | 252 kts | 282° |
| 2026-04-26 14:14 | 41.41063 | 123.68848 | 3301 ft | 254 kts | 282° |
| 2026-04-26 14:15 | 41.41350 | 123.66522 | 2922 ft | 255 kts | 282° |
| 2026-04-26 14:15 | 41.41633 | 123.64217 | 2550 ft | 255 kts | 282° |
| 2026-04-26 14:15 | 41.41919 | 123.61886 | 2172 ft | 256 kts | 282° |
| 2026-04-26 14:15 | 41.42204 | 123.59553 | 1997 ft | 247 kts | 282° |
| 2026-04-26 14:16 | 41.42469 | 123.57372 | 1986 ft | 232 kts | 282° |
| 2026-04-26 14:16 | 41.42718 | 123.55312 | 1991 ft | 220 kts | 283° |
| 2026-04-26 14:16 | 41.42959 | 123.53333 | 2010 ft | 214 kts | 283° |
| 2026-04-26 14:16 | 41.43158 | 123.51427 | 2019 ft | 201 kts | 279° |
| 2026-04-26 14:17 | 41.43263 | 123.49594 | 1992 ft | 196 kts | 277° |
| 2026-04-26 14:17 | 41.43349 | 123.47782 | 1996 ft | 195 kts | 277° |
| 2026-04-26 14:17 | 41.43443 | 123.45982 | 1998 ft | 195 kts | 277° |
| 2026-04-26 14:17 | 41.43543 | 123.44190 | 1997 ft | 195 kts | 278° |
| 2026-04-26 14:18 | 41.43644 | 123.42374 | 2000 ft | 196 kts | 277° |
| 2026-04-26 14:18 | 41.43744 | 123.40582 | 2001 ft | 196 kts | 278° |
| 2026-04-26 14:18 | 41.43844 | 123.38769 | 2000 ft | 196 kts | 277° |
| 2026-04-26 14:18 | 41.44010 | 123.36958 | 1996 ft | 196 kts | 289° |
| 2026-04-26 14:19 | 41.44656 | 123.35428 | 1999 ft | 186 kts | 322° |
| 2026-04-26 14:19 | 41.45696 | 123.34405 | 2005 ft | 184 kts | 330° |
| 2026-04-26 14:19 | 41.46745 | 123.33408 | 1999 ft | 184 kts | 328° |
| 2026-04-26 14:19 | 41.47759 | 123.32372 | 1999 ft | 185 kts | 326° |
| 2026-04-26 14:20 | 41.48780 | 123.31313 | 1998 ft | 185 kts | 326° |
| 2026-04-26 14:20 | 41.49829 | 123.30352 | 1994 ft | 183 kts | 339° |
| 2026-04-26 14:20 | 41.51033 | 123.30065 | 1994 ft | 166 kts | 12° |
| 2026-04-26 14:20 | 41.52034 | 123.30527 | 2049 ft | 153 kts | 29° |
| 2026-04-26 14:21 | 41.52908 | 123.31359 | 1981 ft | 147 kts | 51° |
| 2026-04-26 14:21 | 41.53521 | 123.32388 | 1995 ft | 140 kts | 53° |
| 2026-04-26 14:21 | 41.54087 | 123.33424 | 2037 ft | 136 kts | 54° |
| 2026-04-26 14:21 | 41.54686 | 123.34394 | 2036 ft | 135 kts | 47° |
| 2026-04-26 14:22 | 41.55323 | 123.35315 | 2028 ft | 134 kts | 49° |
| 2026-04-26 14:22 | 41.55935 | 123.36232 | 2063 ft | 133 kts | 49° |
| 2026-04-26 14:22 | 41.56554 | 123.37157 | 2070 ft | 132 kts | 49° |
| 2026-04-26 14:22 | 41.57162 | 123.38069 | 1974 ft | 131 kts | 49° |
| 2026-04-26 14:23 | 41.57762 | 123.38969 | 1806 ft | 129 kts | 49° |
| 2026-04-26 14:23 | 41.58367 | 123.39877 | 1628 ft | 130 kts | 49° |
| 2026-04-26 14:23 | 41.58971 | 123.40784 | 1447 ft | 131 kts | 49° |
| 2026-04-26 14:23 | 41.59580 | 123.41692 | 1254 ft | 133 kts | 48° |
| 2026-04-26 14:24 | 41.60205 | 123.42619 | 1078 ft | 135 kts | 48° |
| 2026-04-26 14:24 | 41.60831 | 123.43561 | 907 ft | 136 kts | 48° |
| 2026-04-26 14:24 | 41.61464 | 123.44517 | 730 ft | 137 kts | 49° |
| 2026-04-26 14:24 | 41.62107 | 123.45480 | 541 ft | 139 kts | 49° |
| 2026-04-26 14:25 | 41.62741 | 123.46444 | 332 ft | 140 kts | 50° |
| 2026-04-26 14:25 | 41.63378 | 123.47405 | 208 ft | 132 kts | 49° |
| 2026-04-26 14:25 | 41.64016 | 123.48370 | 229 ft | 166 kts | 49° |
| 2026-04-26 14:25 | 41.64831 | 123.49614 | 746 ft | 185 kts | 48° |
| 2026-04-26 14:26 | 41.65760 | 123.50948 | 1238 ft | 208 kts | 47° |
| 2026-04-26 14:26 | 41.66792 | 123.52383 | 1823 ft | 216 kts | 46° |
| 2026-04-26 14:26 | 41.67598 | 123.54082 | 2387 ft | 222 kts | 71° |
| 2026-04-26 14:26 | 41.67587 | 123.56135 | 2608 ft | 230 kts | 102° |
| 2026-04-26 14:27 | 41.66753 | 123.57983 | 2605 ft | 235 kts | 131° |
| 2026-04-26 14:27 | 41.65384 | 123.59173 | 2604 ft | 241 kts | 153° |
| 2026-04-26 14:27 | 41.63728 | 123.59566 | 2594 ft | 238 kts | 182° |
| 2026-04-26 14:27 | 41.62220 | 123.58915 | 2602 ft | 222 kts | 204° |
| 2026-04-26 14:28 | 41.60862 | 123.57933 | 2604 ft | 220 kts | 206° |
| 2026-04-26 14:28 | 41.59507 | 123.56986 | 2602 ft | 218 kts | 204° |
| 2026-04-26 14:28 | 41.58166 | 123.56114 | 2601 ft | 215 kts | 202° |
| 2026-04-26 14:28 | 41.56821 | 123.55246 | 2599 ft | 215 kts | 206° |
| 2026-04-26 14:29 | 41.55619 | 123.54043 | 2601 ft | 216 kts | 225° |
| 2026-04-26 14:29 | 41.54649 | 123.52515 | 2599 ft | 217 kts | 231° |
| 2026-04-26 14:29 | 41.53694 | 123.50948 | 2597 ft | 216 kts | 229° |
| 2026-04-26 14:29 | 41.52711 | 123.49415 | 2596 ft | 216 kts | 228° |
| 2026-04-26 14:30 | 41.51723 | 123.47919 | 2597 ft | 217 kts | 227° |
| 2026-04-26 14:30 | 41.50722 | 123.46413 | 2591 ft | 215 kts | 228° |
| 2026-04-26 14:30 | 41.49723 | 123.44908 | 2592 ft | 217 kts | 228° |
| 2026-04-26 14:30 | 41.48735 | 123.43417 | 2591 ft | 217 kts | 227° |
| 2026-04-26 14:31 | 41.47726 | 123.41898 | 2591 ft | 217 kts | 227° |
| 2026-04-26 14:31 | 41.46753 | 123.40390 | 2513 ft | 217 kts | 233° |
| 2026-04-26 14:31 | 41.46214 | 123.38567 | 2257 ft | 209 kts | 268° |
| 2026-04-26 14:31 | 41.46521 | 123.36739 | 2023 ft | 196 kts | 306° |
| 2026-04-26 14:32 | 41.47395 | 123.35454 | 1990 ft | 186 kts | 321° |
| 2026-04-26 14:32 | 41.48361 | 123.34285 | 1989 ft | 186 kts | 323° |
| 2026-04-26 14:32 | 41.49347 | 123.33170 | 1986 ft | 184 kts | 325° |
| 2026-04-26 14:32 | 41.50323 | 123.32166 | 1975 ft | 169 kts | 335° |
| 2026-04-26 14:33 | 41.51421 | 123.31831 | 1990 ft | 161 kts | 10° |
| 2026-04-26 14:33 | 41.52459 | 123.32274 | 1987 ft | 157 kts | 32° |
| 2026-04-26 14:33 | 41.53371 | 123.33058 | 1985 ft | 156 kts | 36° |
| 2026-04-26 14:33 | 41.54248 | 123.33907 | 1995 ft | 152 kts | 41° |
| 2026-04-26 14:34 | 41.54972 | 123.34831 | 1963 ft | 138 kts | 48° |
| 2026-04-26 14:34 | 41.55593 | 123.35737 | 2006 ft | 128 kts | 49° |
| 2026-04-26 14:34 | 41.56203 | 123.36637 | 2008 ft | 131 kts | 49° |
| 2026-04-26 14:34 | 41.56802 | 123.37529 | 1985 ft | 127 kts | 49° |
| 2026-04-26 14:35 | 41.57406 | 123.38438 | 1922 ft | 131 kts | 49° |
| 2026-04-26 14:35 | 41.58007 | 123.39337 | 1728 ft | 128 kts | 49° |
| 2026-04-26 14:35 | 41.58602 | 123.40231 | 1567 ft | 131 kts | 49° |
| 2026-04-26 14:35 | 41.59213 | 123.41148 | 1374 ft | 131 kts | 49° |
| 2026-04-26 14:36 | 41.59824 | 123.42065 | 1201 ft | 133 kts | 49° |
| 2026-04-26 14:36 | 41.60434 | 123.42983 | 1011 ft | 133 kts | 49° |
| 2026-04-26 14:36 | 41.61052 | 123.43910 | 814 ft | 134 kts | 49° |
| 2026-04-26 14:36 | 41.61679 | 123.44847 | 647 ft | 136 kts | 49° |
| 2026-04-26 14:37 | 41.62310 | 123.45798 | 467 ft | 136 kts | 50° |
| 2026-04-26 14:37 | 41.62944 | 123.46748 | 292 ft | 139 kts | 49° |
| 2026-04-26 14:37 | 41.63574 | 123.47702 | 207 ft | 128 kts | 49° |
| 2026-04-26 14:37 | 41.64070 | 123.48448 | 207 ft | 86 kts | 48° |
| 2026-04-26 14:38 | 41.64372 | 123.48907 | 207 ft | 46 kts | 49° |
| 2026-04-26 14:38 | 41.64525 | 123.49175 | 207 ft | 25 kts | 65° |
| 2026-04-26 14:38 | 41.64563 | 123.49322 | 207 ft | 10 kts | 76° |
| 2026-04-26 14:38 | 41.64576 | 123.49397 | 207 ft | 6 kts | 77° |
| 2026-04-26 14:39 | 41.64577 | 123.49454 | 206 ft | 6 kts | 100° |
| 2026-04-26 14:39 | 41.64549 | 123.49487 | 206 ft | 5 kts | 155° |
| 2026-04-26 14:39 | 41.64520 | 123.49490 | 207 ft | 2 kts | 242° |
| 2026-04-26 14:39 | 41.64508 | 123.49459 | 206 ft | 4 kts | 230° |
| 2026-04-26 14:40 | 41.64488 | 123.49429 | 207 ft | 6 kts | 223° |
| 2026-04-26 14:40 | 41.64437 | 123.49366 | 206 ft | 11 kts | 228° |
| 2026-04-26 14:40 | 41.64387 | 123.49290 | 207 ft | 10 kts | 227° |
| 2026-04-26 14:40 | 41.64336 | 123.49215 | 207 ft | 10 kts | 228° |
| 2026-04-26 14:41 | 41.64286 | 123.49139 | 207 ft | 11 kts | 229° |
| 2026-04-26 14:41 | 41.64236 | 123.49062 | 207 ft | 11 kts | 228° |
| 2026-04-26 14:41 | 41.64185 | 123.48985 | 207 ft | 10 kts | 228° |
| 2026-04-26 14:41 | 41.64129 | 123.48901 | 207 ft | 15 kts | 228° |
| 2026-04-26 14:42 | 41.64041 | 123.48769 | 206 ft | 22 kts | 230° |
| 2026-04-26 14:42 | 41.63935 | 123.48608 | 207 ft | 21 kts | 229° |
| 2026-04-26 14:42 | 41.63840 | 123.48575 | 206 ft | 11 kts | 142° |
| 2026-04-26 14:42 | 41.63779 | 123.48646 | 206 ft | 11 kts | 138° |
| 2026-04-26 14:43 | 41.63720 | 123.48708 | 206 ft | 10 kts | 158° |
| 2026-04-26 14:43 | 41.63661 | 123.48674 | 206 ft | 9 kts | 227° |
| 2026-04-26 14:43 | 41.63618 | 123.48618 | 206 ft | 7 kts | 206° |
| 2026-04-26 14:43 | 41.63574 | 123.48634 | 207 ft | 5 kts | 133° |
| 2026-04-26 14:44 | 41.63552 | 123.48660 | 206 ft | 2 kts | 137° |
| 2026-04-26 14:44 | 41.63546 | 123.48668 | 206 ft | 0 kts | 138° |